Time,TemperatureF,DewpointF,PressureIn,WindDirection,WindDirectionDegrees,WindSpeedMPH,WindSpeedGustMPH,Humidity,HourlyPrecipIn,Conditions,Clouds,dailyrainin,SoftwareType,DateUTC
2016-02-08 00:01:00,39.4,32.1,29.95,SW,217,2.3,2.3,75,0.00,CLR,,0.00,WeatherDisplay:10.37,2016-02-08 06:01:00,
2016-02-08 00:06:00,39.3,32.4,29.95,SSW,211,2.3,2.3,76,0.00,CLR,,0.00,WeatherDisplay:10.37,2016-02-08 06:06:00,
2016-02-08 00:12:00,39.1,32.2,29.95,SSW,208,3.5,3.5,76,0.00,CLR,,0.00,WeatherDisplay:10.37,2016-02-08 06:12:00,
2016-02-08 00:17:00,38.9,32.3,29.95,SSW,207,2.3,2.3,77,0.00,CLR,,0.00,WeatherDisplay:10.37,2016-02-08 06:17:00,
2016-02-08 00:22:00,38.6,32.0,29.95,SSW,207,2.3,2.3,77,0.00,CLR,,0.00,WeatherDisplay:10.37,2016-02-08 06:22:00,
2016-02-08 00:27:00,38.2,32.3,29.95,SSW,207,1.2,1.2,79,0.00,CLR,,0.00,WeatherDisplay:10.37,2016-02-08 06:27:00,
2016-02-08 00:32:00,37.8,32.2,29.95,SSW,207,2.3,2.3,80,0.00,CLR,,0.00,WeatherDisplay:10.37,2016-02-08 06:32:00,
2016-02-08 00:37:00,37.6,32.3,29.95,SSW,207,1.2,0.0,81,0.00,CLR,,0.00,WeatherDisplay:10.37,2016-02-08 06:37:00,
2016-02-08 00:42:00,37.4,32.1,29.95,SSW,207,0.0,0.0,81,0.00,CLR,,0.00,WeatherDisplay:10.37,2016-02-08 06:42:00,
2016-02-08 00:47:00,37.1,32.1,29.95,SSW,207,1.2,1.2,82,0.00,CLR,,0.00,WeatherDisplay:10.37,2016-02-08 06:47:00,
2016-02-08 00:52:00,36.9,31.9,29.95,SSW,207,1.2,0.0,82,0.00,CLR,,0.00,WeatherDisplay:10.37,2016-02-08 06:52:00,
2016-02-08 00:57:00,36.6,31.6,29.95,SSW,207,1.0,1.0,82,0.00,CLR,,0.00,WeatherDisplay:10.37,2016-02-08 06:57:00,
2016-02-08 01:02:00,36.5,32.1,29.95,SSW,207,3.5,3.5,84,0.00,CLR,,0.00,WeatherDisplay:10.37,2016-02-08 07:02:00,
2016-02-08 01:07:00,36.7,32.6,29.95,SSW,207,2.3,2.3,85,0.00,CLR,,0.00,WeatherDisplay:10.37,2016-02-08 07:07:00,
2016-02-08 01:12:00,36.8,32.4,29.95,SSW,207,1.2,1.2,84,0.00,CLR,,0.00,WeatherDisplay:10.37,2016-02-08 07:12:00,
2016-02-08 01:17:00,37.4,33.3,29.95,SW,222,2.3,2.3,85,0.00,CLR,,0.00,WeatherDisplay:10.37,2016-02-08 07:17:00,
2016-02-08 01:22:00,37.9,33.5,29.95,WSW,251,2.3,2.3,84,0.00,CLR,,0.00,WeatherDisplay:10.37,2016-02-08 07:22:00,
2016-02-08 01:27:00,39.1,34.7,29.95,WSW,257,3.5,3.5,84,0.00,CLR,,0.00,WeatherDisplay:10.37,2016-02-08 07:27:00,
2016-02-08 01:32:00,40.1,35.7,29.95,West,263,3.5,3.5,84,0.00,CLR,,0.00,WeatherDisplay:10.37,2016-02-08 07:32:00,
2016-02-08 01:37:00,40.9,36.1,29.95,West,272,3.5,3.5,83,0.00,CLR,,0.00,WeatherDisplay:10.37,2016-02-08 07:37:00,
2016-02-08 01:42:00,41.6,36.5,29.95,West,267,4.6,4.6,82,0.00,CLR,,0.00,WeatherDisplay:10.37,2016-02-08 07:42:00,
2016-02-08 01:47:00,42.3,36.9,29.95,West,261,5.8,5.8,81,0.00,CLR,,0.00,WeatherDisplay:10.37,2016-02-08 07:47:00,
2016-02-08 01:52:00,42.7,37.3,29.95,West,275,5.0,5.0,81,0.00,CLR,,0.00,WeatherDisplay:10.37,2016-02-08 07:52:00,
2016-02-08 01:57:00,43.3,37.5,29.95,West,263,4.6,4.6,80,0.00,CLR,,0.00,WeatherDisplay:10.37,2016-02-08 07:57:00,
2016-02-08 02:02:00,43.2,37.4,29.95,West,268,6.0,6.0,80,0.00,CLR,,0.00,WeatherDisplay:10.37,2016-02-08 08:02:00,
2016-02-08 02:07:00,43.2,37.4,29.95,WSW,257,4.0,4.0,80,0.00,CLR,,0.00,WeatherDisplay:10.37,2016-02-08 08:07:00,
2016-02-08 02:12:00,42.8,36.7,29.95,SW,223,3.5,3.5,79,0.00,CLR,,0.00,WeatherDisplay:10.37,2016-02-08 08:12:00,
2016-02-08 02:17:00,41.8,35.8,29.95,SSW,211,3.5,3.5,79,0.00,CLR,,0.00,WeatherDisplay:10.37,2016-02-08 08:17:00,
2016-02-08 02:22:00,41.2,36.1,29.95,SSW,195,3.5,3.5,82,0.00,CLR,,0.00,WeatherDisplay:10.37,2016-02-08 08:22:00,
2016-02-08 02:27:00,40.8,36.0,29.95,SSW,206,4.0,4.0,83,0.00,CLR,,0.00,WeatherDisplay:10.37,2016-02-08 08:27:00,
2016-02-08 02:32:00,40.5,36.0,29.95,SSW,200,3.5,3.5,84,0.00,CLR,,0.00,WeatherDisplay:10.37,2016-02-08 08:32:00,
2016-02-08 02:37:00,40.3,36.1,29.95,SSW,210,3.5,3.5,85,0.00,CLR,,0.00,WeatherDisplay:10.37,2016-02-08 08:37:00,
2016-02-08 02:42:00,40.1,36.0,29.95,SW,228,4.6,4.6,85,0.00,CLR,,0.00,WeatherDisplay:10.37,2016-02-08 08:42:00,
2016-02-08 02:47:00,40.0,35.9,29.95,SW,219,3.5,3.5,85,0.00,CLR,,0.00,WeatherDisplay:10.37,2016-02-08 08:47:00,
2016-02-08 02:52:00,40.1,36.2,29.95,SW,217,3.5,3.5,86,0.00,CLR,,0.00,WeatherDisplay:10.37,2016-02-08 08:52:00,
2016-02-08 02:57:00,40.2,36.3,29.95,WSW,238,3.5,3.5,86,0.00,CLR,,0.00,WeatherDisplay:10.37,2016-02-08 08:57:00,
2016-02-08 03:02:00,40.6,36.4,29.95,SW,230,3.5,3.5,85,0.00,CLR,,0.00,WeatherDisplay:10.37,2016-02-08 09:02:00,
2016-02-08 03:07:00,40.8,36.9,29.95,SW,220,3.5,3.5,86,0.00,CLR,,0.00,WeatherDisplay:10.37,2016-02-08 09:07:00,
2016-02-08 03:17:00,40.0,36.2,29.95,SSW,212,3.5,3.5,86,0.00,CLR,,0.00,WeatherDisplay:10.37,2016-02-08 09:17:00,
2016-02-08 03:22:00,39.8,36.2,29.95,SW,216,3.5,3.5,87,0.00,CLR,,0.00,WeatherDisplay:10.37,2016-02-08 09:22:00,
2016-02-08 03:27:00,39.9,36.3,29.95,SW,236,3.5,3.5,87,0.00,CLR,,0.00,WeatherDisplay:10.37,2016-02-08 09:27:00,
2016-02-08 03:32:00,39.9,36.6,29.95,SW,232,3.5,3.5,88,0.00,CLR,,0.00,WeatherDisplay:10.37,2016-02-08 09:32:00,
2016-02-08 03:37:00,40.0,36.7,29.95,SSW,206,3.5,3.5,88,0.00,CLR,,0.00,WeatherDisplay:10.37,2016-02-08 09:37:00,
2016-02-08 03:42:00,40.0,36.7,29.95,SW,215,3.5,3.5,88,0.00,CLR,,0.00,WeatherDisplay:10.37,2016-02-08 09:42:00,
2016-02-08 03:47:00,40.0,36.4,29.95,SW,215,3.5,3.5,87,0.00,CLR,,0.00,WeatherDisplay:10.37,2016-02-08 09:47:00,
2016-02-08 03:52:00,39.8,36.5,29.95,SW,216,3.5,3.5,88,0.00,CLR,,0.00,WeatherDisplay:10.37,2016-02-08 09:52:00,
2016-02-08 03:57:00,39.6,36.3,29.95,SSW,209,4.0,4.0,88,0.00,CLR,,0.00,WeatherDisplay:10.37,2016-02-08 09:57:00,
2016-02-08 04:02:00,39.5,36.5,29.95,SSW,205,3.5,3.5,89,0.00,CLR,,0.00,WeatherDisplay:10.37,2016-02-08 10:02:00,
2016-02-08 04:07:00,39.5,36.5,29.95,SSW,203,3.5,3.5,89,0.00,CLR,,0.00,WeatherDisplay:10.37,2016-02-08 10:07:00,
2016-02-08 04:12:00,39.4,36.4,29.95,SSW,203,3.5,3.5,89,0.00,CLR,,0.00,WeatherDisplay:10.37,2016-02-08 10:12:00,
2016-02-08 04:17:00,39.2,36.2,29.95,SSW,203,2.3,2.3,89,0.00,CLR,,0.00,WeatherDisplay:10.37,2016-02-08 10:17:00,
2016-02-08 04:22:00,39.0,36.0,29.95,SSW,203,2.3,2.3,89,0.00,CLR,,0.00,WeatherDisplay:10.37,2016-02-08 10:22:00,
2016-02-08 04:27:00,38.7,36.0,29.95,SSW,203,2.3,2.3,90,0.00,CLR,,0.00,WeatherDisplay:10.37,2016-02-08 10:27:00,
2016-02-08 04:32:00,38.5,35.8,29.95,SSW,203,2.3,2.3,90,0.00,CLR,,0.00,WeatherDisplay:10.37,2016-02-08 10:32:00,
2016-02-08 04:38:00,38.2,35.5,29.95,SSW,203,2.3,2.3,90,0.00,CLR,,0.00,WeatherDisplay:10.37,2016-02-08 10:38:00,
2016-02-08 04:43:00,37.8,35.1,29.95,SSW,196,2.3,2.3,90,0.00,CLR,,0.00,WeatherDisplay:10.37,2016-02-08 10:43:00,
2016-02-08 04:47:00,37.6,35.2,29.95,South,191,1.2,1.2,91,0.00,CLR,,0.00,WeatherDisplay:10.37,2016-02-08 10:47:00,
2016-02-08 04:53:00,37.4,35.0,29.95,South,191,0.0,0.0,91,0.00,CLR,,0.00,WeatherDisplay:10.37,2016-02-08 10:53:00,
2016-02-08 04:58:00,37.2,34.8,29.95,South,191,1.2,1.2,91,0.00,CLR,,0.00,WeatherDisplay:10.37,2016-02-08 10:58:00,
2016-02-08 05:03:00,37.0,34.6,29.95,South,191,1.2,1.2,91,0.00,CLR,,0.00,WeatherDisplay:10.37,2016-02-08 11:03:00,
2016-02-08 05:08:00,36.7,34.3,29.95,South,191,1.2,1.2,91,0.00,CLR,,0.00,WeatherDisplay:10.37,2016-02-08 11:08:00,
2016-02-08 05:13:00,36.4,34.3,29.95,South,191,1.2,1.2,92,0.00,CLR,,0.00,WeatherDisplay:10.37,2016-02-08 11:13:00,
2016-02-08 05:18:00,36.3,34.2,29.95,South,191,1.2,1.2,92,0.00,CLR,,0.00,WeatherDisplay:10.37,2016-02-08 11:18:00,
2016-02-08 05:23:00,36.2,34.1,29.95,South,191,1.2,1.2,92,0.00,CLR,,0.00,WeatherDisplay:10.37,2016-02-08 11:23:00,
2016-02-08 05:28:00,36.0,33.9,29.95,South,191,1.2,1.2,92,0.00,CLR,,0.00,WeatherDisplay:10.37,2016-02-08 11:28:00,
2016-02-08 05:33:00,35.7,33.6,29.95,South,191,0.0,0.0,92,0.00,CLR,,0.00,WeatherDisplay:10.37,2016-02-08 11:33:00,
2016-02-08 05:38:00,35.6,33.8,29.95,South,191,1.2,1.2,93,0.00,CLR,,0.00,WeatherDisplay:10.37,2016-02-08 11:38:00,
2016-02-08 05:43:00,35.4,33.6,29.95,South,191,1.2,1.2,93,0.00,CLR,,0.00,WeatherDisplay:10.37,2016-02-08 11:43:00,
2016-02-08 05:48:00,35.3,33.7,29.95,South,191,1.2,1.2,94,0.00,CLR,,0.00,WeatherDisplay:10.37,2016-02-08 11:48:00,
2016-02-08 05:53:00,35.2,33.6,29.95,South,191,0.0,0.0,94,0.00,CLR,,0.00,WeatherDisplay:10.37,2016-02-08 11:53:00,
2016-02-08 06:03:00,35.1,33.5,29.95,South,191,0.0,0.0,94,0.00,CLR,,0.00,WeatherDisplay:10.37,2016-02-08 12:03:00,
2016-02-08 06:08:00,34.9,33.3,29.95,South,191,0.0,0.0,94,0.00,CLR,,0.00,WeatherDisplay:10.37,2016-02-08 12:08:00,
2016-02-08 06:13:00,34.6,32.8,29.95,South,191,0.0,0.0,93,0.00,CLR,,0.00,WeatherDisplay:10.37,2016-02-08 12:13:00,
2016-02-08 06:18:00,34.5,33.0,29.95,South,191,0.0,0.0,94,0.00,CLR,,0.00,WeatherDisplay:10.37,2016-02-08 12:18:00,
2016-02-08 06:23:00,34.4,32.9,29.95,South,191,0.0,0.0,94,0.00,CLR,,0.00,WeatherDisplay:10.37,2016-02-08 12:23:00,
2016-02-08 06:28:00,34.4,33.1,29.95,South,191,1.2,1.2,95,0.00,CLR,,0.00,WeatherDisplay:10.37,2016-02-08 12:28:00,
2016-02-08 06:33:00,34.4,33.1,29.95,South,191,0.0,0.0,95,0.00,CLR,,0.00,WeatherDisplay:10.37,2016-02-08 12:33:00,
2016-02-08 06:38:00,34.6,33.6,29.95,South,191,0.0,0.0,96,0.00,CLR,,0.00,WeatherDisplay:10.37,2016-02-08 12:38:00,
2016-02-08 06:43:00,34.5,33.2,29.95,South,191,0.0,0.0,95,0.00,CLR,,0.00,WeatherDisplay:10.37,2016-02-08 12:43:00,
2016-02-08 06:48:00,34.3,33.0,29.95,South,191,0.0,0.0,95,0.00,CLR,,0.00,WeatherDisplay:10.37,2016-02-08 12:48:00,
2016-02-08 06:53:00,34.4,33.1,29.95,South,191,0.0,0.0,95,0.00,CLR,,0.00,WeatherDisplay:10.37,2016-02-08 12:53:00,
2016-02-08 06:58:00,34.7,33.7,29.95,South,191,0.0,0.0,96,0.00,CLR,,0.00,WeatherDisplay:10.37,2016-02-08 12:58:00,
2016-02-08 07:03:00,35.0,34.2,29.95,South,191,1.0,0.0,97,0.00,CLR,,0.00,WeatherDisplay:10.37,2016-02-08 13:03:00,
2016-02-08 07:08:00,35.8,35.0,29.95,South,191,1.2,1.2,97,0.00,CLR,,0.00,WeatherDisplay:10.37,2016-02-08 13:08:00,
2016-02-08 07:13:00,36.5,35.7,29.95,South,191,2.3,2.3,97,0.00,CLR,,0.00,WeatherDisplay:10.37,2016-02-08 13:13:00,
2016-02-08 07:18:00,37.0,36.2,29.95,South,191,1.2,1.2,97,0.00,CLR,,0.00,WeatherDisplay:10.37,2016-02-08 13:18:00,
2016-02-08 07:23:00,37.5,36.5,29.95,South,191,1.2,1.2,96,0.00,CLR,,0.00,WeatherDisplay:10.37,2016-02-08 13:23:00,
2016-02-08 07:33:00,38.9,37.6,29.95,SW,225,3.5,3.5,95,0.00,CLR,,0.00,WeatherDisplay:10.37,2016-02-08 13:33:00,
2016-02-08 07:38:00,39.9,38.0,29.95,SW,236,3.5,3.5,93,0.00,CLR,,0.00,WeatherDisplay:10.37,2016-02-08 13:38:00,
2016-02-08 07:43:00,41.0,38.6,29.95,SW,234,4.6,4.6,91,0.00,CLR,,0.00,WeatherDisplay:10.37,2016-02-08 13:43:00,
2016-02-08 07:48:00,42.3,39.3,29.95,WSW,244,8.1,8.1,89,0.00,CLR,,0.00,WeatherDisplay:10.37,2016-02-08 13:48:00,
2016-02-08 07:53:00,43.4,40.1,29.95,SW,236,5.0,5.0,88,0.00,CLR,,0.00,WeatherDisplay:10.37,2016-02-08 13:53:00,
2016-02-08 07:58:00,44.5,40.6,29.95,WSW,244,8.1,8.1,86,0.00,CLR,,0.00,WeatherDisplay:10.37,2016-02-08 13:58:00,
2016-02-08 08:03:00,45.2,40.7,29.95,WSW,242,10.4,10.4,84,0.00,CLR,,0.00,WeatherDisplay:10.37,2016-02-08 14:03:00,
2016-02-08 08:13:00,46.5,41.0,29.95,WSW,238,11.5,11.5,81,0.00,CLR,,0.00,WeatherDisplay:10.37,2016-02-08 14:13:00,
2016-02-08 08:18:00,47.0,41.1,29.95,SW,232,9.2,9.2,80,0.00,CLR,,0.00,WeatherDisplay:10.37,2016-02-08 14:18:00,
2016-02-08 08:23:00,47.6,41.7,29.95,West,263,11.5,11.5,80,0.00,CLR,,0.00,WeatherDisplay:10.37,2016-02-08 14:23:00,
2016-02-08 08:28:00,48.1,41.9,29.95,WSW,242,9.2,9.2,79,0.00,CLR,,0.00,WeatherDisplay:10.37,2016-02-08 14:28:00,
2016-02-08 08:33:00,48.7,42.1,29.95,WSW,242,15.0,15.0,78,0.00,CLR,,0.00,WeatherDisplay:10.37,2016-02-08 14:33:00,
2016-02-08 08:38:00,49.0,41.8,29.95,WSW,258,10.4,10.4,76,0.00,CLR,,0.00,WeatherDisplay:10.37,2016-02-08 14:38:00,
2016-02-08 08:43:00,49.7,42.4,29.95,WSW,257,9.2,9.2,76,0.00,CLR,,0.00,WeatherDisplay:10.37,2016-02-08 14:43:00,
2016-02-08 08:58:00,50.9,42.6,29.95,WSW,243,10.4,10.4,73,0.00,CLR,,0.00,WeatherDisplay:10.37,2016-02-08 14:58:00,
2016-02-08 09:03:00,51.2,42.5,29.95,SW,221,11.5,11.5,72,0.00,CLR,,0.00,WeatherDisplay:10.37,2016-02-08 15:03:00,
2016-02-08 09:08:00,51.4,41.9,29.95,SW,230,13.8,13.8,70,0.00,CLR,,0.00,WeatherDisplay:10.37,2016-02-08 15:08:00,
2016-02-08 09:13:00,51.7,41.5,29.95,SW,236,12.7,12.7,68,0.00,CLR,,0.00,WeatherDisplay:10.37,2016-02-08 15:13:00,
2016-02-08 09:18:00,52.3,42.4,29.95,SW,232,11.5,11.5,69,0.00,CLR,,0.00,WeatherDisplay:10.37,2016-02-08 15:18:00,
2016-02-08 09:23:00,52.5,41.9,29.95,SW,236,16.1,16.1,67,0.00,CLR,,0.00,WeatherDisplay:10.37,2016-02-08 15:23:00,
2016-02-08 09:28:00,52.8,42.5,29.95,SW,223,11.5,11.5,68,0.00,CLR,,0.00,WeatherDisplay:10.37,2016-02-08 15:28:00,
2016-02-08 09:33:00,53.2,41.7,29.95,WSW,249,12.7,12.7,65,0.00,CLR,,0.00,WeatherDisplay:10.37,2016-02-08 15:33:00,
2016-02-08 09:38:00,53.9,42.8,29.95,WSW,241,11.5,11.5,66,0.00,CLR,,0.00,WeatherDisplay:10.37,2016-02-08 15:38:00,
2016-02-08 09:43:00,54.1,41.4,29.95,SW,227,13.8,13.8,62,0.00,CLR,,0.00,WeatherDisplay:10.37,2016-02-08 15:43:00,
2016-02-08 09:48:00,54.5,41.7,29.95,SW,214,12.7,12.7,62,0.00,CLR,,0.00,WeatherDisplay:10.37,2016-02-08 15:48:00,
2016-02-08 09:53:00,55.1,41.9,29.95,SW,227,11.5,11.5,61,0.00,CLR,,0.00,WeatherDisplay:10.37,2016-02-08 15:53:00,
2016-02-08 09:58:00,55.7,42.0,29.95,SW,221,15.0,15.0,60,0.00,CLR,,0.00,WeatherDisplay:10.37,2016-02-08 15:58:00,
2016-02-08 10:03:00,56.3,41.3,29.95,SW,232,16.1,16.1,57,0.00,CLR,,0.00,WeatherDisplay:10.37,2016-02-08 16:03:00,
2016-02-08 10:08:00,56.8,42.2,29.95,WSW,239,11.5,11.5,58,0.00,CLR,,0.00,WeatherDisplay:10.37,2016-02-08 16:08:00,
2016-02-08 10:13:00,57.4,41.8,29.95,SW,227,13.8,13.8,56,0.00,CLR,,0.00,WeatherDisplay:10.37,2016-02-08 16:13:00,
2016-02-08 10:18:00,57.7,41.6,29.95,SW,234,19.6,19.6,55,0.00,CLR,,0.00,WeatherDisplay:10.37,2016-02-08 16:18:00,
2016-02-08 10:23:00,57.8,41.7,29.95,West,260,17.3,17.3,55,0.00,CLR,,0.00,WeatherDisplay:10.37,2016-02-08 16:23:00,
2016-02-08 10:28:00,58.3,42.7,29.95,SW,229,13.8,13.8,56,0.00,CLR,,0.00,WeatherDisplay:10.37,2016-02-08 16:28:00,
2016-02-08 10:33:00,58.4,42.3,29.95,SW,230,17.3,17.3,55,0.00,CLR,,0.00,WeatherDisplay:10.37,2016-02-08 16:33:00,
2016-02-08 10:38:00,58.7,42.1,29.95,West,259,16.1,16.1,54,0.00,CLR,,0.00,WeatherDisplay:10.37,2016-02-08 16:38:00,
2016-02-08 10:43:00,59.6,42.4,29.95,SW,236,17.3,17.3,53,0.00,CLR,,0.00,WeatherDisplay:10.37,2016-02-08 16:43:00,
2016-02-08 10:48:00,59.6,42.4,29.95,WSW,249,17.3,17.3,53,0.00,CLR,,0.00,WeatherDisplay:10.37,2016-02-08 16:48:00,
2016-02-08 10:53:00,59.6,42.4,29.95,SW,232,16.1,16.1,53,0.00,CLR,,0.00,WeatherDisplay:10.37,2016-02-08 16:53:00,
2016-02-08 10:58:00,60.0,42.8,29.95,SSW,212,17.3,17.3,53,0.00,CLR,,0.00,WeatherDisplay:10.37,2016-02-08 16:58:00,
2016-02-08 11:03:00,60.1,41.9,29.95,WSW,238,14.0,14.0,51,0.00,CLR,,0.00,WeatherDisplay:10.37,2016-02-08 17:03:00,
2016-02-08 11:08:00,60.4,42.2,29.95,SW,236,17.3,17.3,51,0.00,CLR,,0.00,WeatherDisplay:10.37,2016-02-08 17:08:00,
2016-02-08 11:19:00,60.4,42.7,29.95,West,261,18.4,18.4,52,0.00,CLR,,0.00,WeatherDisplay:10.37,2016-02-08 17:19:00,
2016-02-08 11:24:00,60.7,43.0,29.95,WSW,240,17.3,17.3,52,0.00,CLR,,0.00,WeatherDisplay:10.37,2016-02-08 17:24:00,
2016-02-08 11:34:00,60.9,40.0,29.95,WSW,249,19.6,19.6,46,0.00,CLR,,0.00,WeatherDisplay:10.37,2016-02-08 17:34:00,
2016-02-08 11:39:00,60.6,40.8,29.95,WSW,248,19.6,19.6,48,0.00,CLR,,0.00,WeatherDisplay:10.37,2016-02-08 17:39:00,
2016-02-08 11:44:00,60.5,40.7,29.95,WSW,258,19.6,19.6,48,0.00,CLR,,0.00,WeatherDisplay:10.37,2016-02-08 17:44:00,
2016-02-08 11:49:00,60.5,39.6,29.95,WNW,283,21.9,21.9,46,0.00,CLR,,0.00,WeatherDisplay:10.37,2016-02-08 17:49:00,
2016-02-08 11:54:00,60.4,40.1,29.95,West,281,18.4,18.4,47,0.00,CLR,,0.00,WeatherDisplay:10.37,2016-02-08 17:54:00,
2016-02-08 11:59:00,60.2,39.9,29.95,West,281,15.0,15.0,47,0.00,CLR,,0.00,WeatherDisplay:10.37,2016-02-08 17:59:00,
2016-02-08 12:04:00,61.1,40.7,29.95,WSW,251,15.0,15.0,47,0.00,CLR,,0.00,WeatherDisplay:10.37,2016-02-08 18:04:00,
2016-02-08 12:09:00,61.3,39.8,29.95,WNW,282,13.8,13.8,45,0.00,CLR,,0.00,WeatherDisplay:10.37,2016-02-08 18:09:00,
2016-02-08 12:14:00,61.1,39.0,29.95,WSW,250,15.0,15.0,44,0.00,CLR,,0.00,WeatherDisplay:10.37,2016-02-08 18:14:00,
2016-02-08 12:19:00,61.3,39.2,29.95,West,263,16.1,16.1,44,0.00,FEW,,0.00,WeatherDisplay:10.37,2016-02-08 18:19:00,
2016-02-08 12:24:00,61.5,38.2,29.95,WNW,293,19.6,19.6,42,0.00,FEW,,0.00,WeatherDisplay:10.37,2016-02-08 18:24:00,
2016-02-08 12:29:00,61.6,36.4,29.95,WNW,284,20.7,20.7,39,0.00,FEW,,0.00,WeatherDisplay:10.37,2016-02-08 18:29:00,
2016-02-08 12:34:00,61.5,36.9,29.95,NW,304,16.1,16.1,40,0.00,FEW,,0.00,WeatherDisplay:10.37,2016-02-08 18:34:00,
2016-02-08 12:39:00,61.8,35.9,29.95,West,260,21.0,21.0,38,0.00,FEW,,0.00,WeatherDisplay:10.37,2016-02-08 18:39:00,
2016-02-08 12:44:00,61.8,35.9,29.95,SW,232,21.9,21.9,38,0.00,FEW,,0.00,WeatherDisplay:10.37,2016-02-08 18:44:00,
2016-02-08 12:49:00,62.4,37.7,29.95,WSW,251,16.0,16.0,40,0.00,FEW,,0.00,WeatherDisplay:10.37,2016-02-08 18:49:00,
2016-02-08 12:54:00,62.3,36.4,29.95,WNW,292,20.7,20.7,38,0.00,FEW,,0.00,WeatherDisplay:10.37,2016-02-08 18:54:00,
2016-02-08 12:59:00,62.1,36.8,29.95,West,261,13.8,13.8,39,0.00,FEW,,0.00,WeatherDisplay:10.37,2016-02-08 18:59:00,
2016-02-08 13:04:00,61.9,36.7,29.95,West,269,19.6,19.6,39,0.00,FEW,,0.00,WeatherDisplay:10.37,2016-02-08 19:04:00,
2016-02-08 13:09:00,61.0,34.5,29.95,WNW,283,20.7,20.7,37,0.00,FEW,,0.00,WeatherDisplay:10.37,2016-02-08 19:09:00,
2016-02-08 13:14:00,61.5,33.6,29.95,WNW,285,19.6,19.6,35,0.00,FEW,,0.00,WeatherDisplay:10.37,2016-02-08 19:14:00,
2016-02-08 13:19:00,62.4,35.1,29.95,West,280,16.1,16.1,36,0.00,FEW,,0.00,WeatherDisplay:10.37,2016-02-08 19:19:00,
2016-02-08 13:24:00,62.3,32.8,29.95,WNW,290,21.9,21.9,33,0.00,FEW,,0.00,WeatherDisplay:10.37,2016-02-08 19:24:00,
2016-02-08 13:29:00,61.5,32.1,29.95,West,269,25.3,25.3,33,0.00,FEW,,0.00,WeatherDisplay:10.37,2016-02-08 19:29:00,
2016-02-08 13:34:00,61.5,32.8,29.95,West,273,19.6,19.6,34,0.00,FEW,,0.00,WeatherDisplay:10.37,2016-02-08 19:34:00,
2016-02-08 13:39:00,62.0,34.0,29.95,WNW,286,26.5,26.5,35,0.00,FEW,,0.00,WeatherDisplay:10.37,2016-02-08 19:39:00,
2016-02-08 13:44:00,61.6,33.7,29.95,NW,316,15.0,15.0,35,0.00,FEW,,0.00,WeatherDisplay:10.37,2016-02-08 19:44:00,
2016-02-08 13:49:00,61.4,34.9,29.95,WNW,302,15.0,15.0,37,0.00,FEW,,0.00,WeatherDisplay:10.37,2016-02-08 19:49:00,
2016-02-08 13:54:00,60.7,34.3,29.95,WNW,285,17.3,17.3,37,0.00,FEW,,0.00,WeatherDisplay:10.37,2016-02-08 19:54:00,
2016-02-08 13:59:00,60.2,33.8,29.95,WNW,303,19.6,19.6,37,0.00,FEW,,0.00,WeatherDisplay:10.37,2016-02-08 19:59:00,
2016-02-08 14:04:00,60.0,34.3,29.95,West,274,18.0,18.0,38,0.00,SCT,,0.00,WeatherDisplay:10.37,2016-02-08 20:04:00,
2016-02-08 14:09:00,59.5,33.9,29.95,WNW,293,19.6,19.6,38,0.00,SCT,,0.00,WeatherDisplay:10.37,2016-02-08 20:09:00,
2016-02-08 14:14:00,59.8,34.8,29.95,WNW,302,18.4,18.4,39,0.00,SCT,,0.00,WeatherDisplay:10.37,2016-02-08 20:14:00,
2016-02-08 14:19:00,60.5,36.0,29.95,North,355,19.6,19.6,40,0.00,SCT,,0.00,WeatherDisplay:10.37,2016-02-08 20:19:00,
2016-02-08 14:24:00,60.9,35.1,29.95,NW,305,18.4,18.4,38,0.00,SCT,,0.00,WeatherDisplay:10.37,2016-02-08 20:24:00,
2016-02-08 14:29:00,60.7,36.2,29.95,WNW,299,13.8,13.8,40,0.00,SCT,,0.00,WeatherDisplay:10.37,2016-02-08 20:29:00,
2016-02-08 14:34:00,59.3,33.7,29.95,WNW,298,20.7,20.7,38,0.00,SCT,,0.00,WeatherDisplay:10.37,2016-02-08 20:34:00,
2016-02-08 14:39:00,58.9,33.3,29.95,WNW,284,19.6,19.6,38,0.00,SCT,,0.00,WeatherDisplay:10.37,2016-02-08 20:39:00,
2016-02-08 14:44:00,58.7,33.1,29.95,West,277,25.3,25.3,38,0.00,SCT,,0.00,WeatherDisplay:10.37,2016-02-08 20:44:00,
2016-02-08 14:49:00,59.1,32.8,29.95,West,281,16.1,16.1,37,0.00,SCT,,0.00,WeatherDisplay:10.37,2016-02-08 20:49:00,
2016-02-08 14:54:00,59.4,32.4,29.95,WNW,291,20.7,20.7,36,0.00,SCT,,0.00,WeatherDisplay:10.37,2016-02-08 20:54:00,
2016-02-08 14:59:00,59.2,32.9,29.95,WNW,296,16.1,16.1,37,0.00,SCT,,0.00,WeatherDisplay:10.37,2016-02-08 20:59:00,
2016-02-08 15:04:00,58.2,32.0,29.95,WNW,297,18.4,18.4,37,0.00,FEW,,0.00,WeatherDisplay:10.37,2016-02-08 21:04:00,
2016-02-08 15:09:00,57.9,29.7,29.95,WNW,302,23.0,23.0,34,0.00,FEW,,0.00,WeatherDisplay:10.37,2016-02-08 21:09:00,
2016-02-08 15:14:00,58.7,31.1,29.95,NW,306,18.0,18.0,35,0.00,FEW,,0.00,WeatherDisplay:10.37,2016-02-08 21:14:00,
2016-02-08 15:19:00,58.6,31.0,29.95,WNW,289,18.4,18.4,35,0.00,FEW,,0.00,WeatherDisplay:10.37,2016-02-08 21:19:00,
2016-02-08 15:24:00,58.7,28.9,29.95,West,271,16.0,16.0,32,0.00,FEW,,0.00,WeatherDisplay:10.37,2016-02-08 21:24:00,
2016-02-08 15:29:00,58.9,26.7,29.95,West,279,19.6,19.6,29,0.00,FEW,,0.00,WeatherDisplay:10.37,2016-02-08 21:29:00,
2016-02-08 15:34:00,58.4,27.9,29.95,West,276,16.0,16.0,31,0.00,BKN,,0.00,WeatherDisplay:10.37,2016-02-08 21:34:00,
2016-02-08 15:39:00,57.0,28.1,29.95,West,261,14.0,14.0,33,0.00,BKN,,0.00,WeatherDisplay:10.37,2016-02-08 21:39:00,
2016-02-08 15:44:00,57.3,28.4,29.95,West,275,16.1,16.1,33,0.00,BKN,,0.00,WeatherDisplay:10.37,2016-02-08 21:44:00,
2016-02-08 15:49:00,57.8,25.7,29.95,WSW,246,19.6,19.6,29,0.00,BKN,,0.00,WeatherDisplay:10.37,2016-02-08 21:49:00,
2016-02-08 15:54:00,57.7,23.9,29.95,West,277,19.6,19.6,27,0.00,BKN,,0.00,WeatherDisplay:10.37,2016-02-08 21:54:00,
2016-02-08 15:59:00,57.5,25.5,29.95,WNW,301,19.6,19.6,29,0.00,BKN,,0.00,WeatherDisplay:10.37,2016-02-08 21:59:00,
2016-02-08 16:04:00,57.4,25.4,29.95,West,267,15.0,15.0,29,0.00,SCT,,0.00,WeatherDisplay:10.37,2016-02-08 22:04:00,
2016-02-08 16:09:00,57.2,26.8,29.95,WNW,301,12.0,12.0,31,0.00,SCT,,0.00,WeatherDisplay:10.37,2016-02-08 22:09:00,
2016-02-08 16:14:00,56.9,27.3,29.95,WNW,291,18.0,18.0,32,0.00,SCT,,0.00,WeatherDisplay:10.37,2016-02-08 22:14:00,
2016-02-08 16:19:00,56.7,25.6,29.95,WNW,301,18.4,18.4,30,0.00,SCT,,0.00,WeatherDisplay:10.37,2016-02-08 22:19:00,
2016-02-08 16:24:00,56.5,26.2,29.95,WNW,296,17.3,17.3,31,0.00,SCT,,0.00,WeatherDisplay:10.37,2016-02-08 22:24:00,
2016-02-08 16:29:00,55.9,25.7,29.95,WNW,291,18.4,18.4,31,0.00,SCT,,0.00,WeatherDisplay:10.37,2016-02-08 22:29:00,
2016-02-08 16:34:00,55.6,25.4,29.95,WNW,298,13.8,13.8,31,0.00,SCT,,0.00,WeatherDisplay:10.37,2016-02-08 22:34:00,
2016-02-08 16:39:00,55.6,26.2,29.95,WNW,292,11.5,11.5,32,0.00,SCT,,0.00,WeatherDisplay:10.37,2016-02-08 22:39:00,
2016-02-08 16:44:00,55.1,25.7,29.95,West,281,13.0,13.0,32,0.00,SCT,,0.00,WeatherDisplay:10.37,2016-02-08 22:44:00,
2016-02-08 16:49:00,55.1,25.0,29.95,WNW,290,13.8,13.8,31,0.00,SCT,,0.00,WeatherDisplay:10.37,2016-02-08 22:49:00,
2016-02-08 16:54:00,55.0,24.1,29.95,NW,310,18.4,18.4,30,0.00,SCT,,0.00,WeatherDisplay:10.37,2016-02-08 22:54:00,
2016-02-08 16:59:00,54.8,24.7,29.95,NW,305,13.8,13.8,31,0.00,SCT,,0.00,WeatherDisplay:10.37,2016-02-08 22:59:00,
2016-02-08 17:04:00,54.5,25.2,29.95,WNW,287,15.0,15.0,32,0.00,BKN,,0.00,WeatherDisplay:10.37,2016-02-08 23:04:00,
2016-02-08 17:09:00,54.2,24.2,29.95,WNW,289,19.6,19.6,31,0.00,BKN,,0.00,WeatherDisplay:10.37,2016-02-08 23:09:00,
2016-02-08 17:14:00,53.8,23.8,29.95,WNW,287,12.7,12.7,31,0.00,BKN,,0.00,WeatherDisplay:10.37,2016-02-08 23:14:00,
2016-02-08 17:19:00,53.5,23.6,29.95,WNW,301,11.5,11.5,31,0.00,BKN,,0.00,WeatherDisplay:10.37,2016-02-08 23:19:00,
2016-02-08 17:24:00,53.2,23.3,29.95,NW,304,8.1,8.1,31,0.00,BKN,,0.00,WeatherDisplay:10.37,2016-02-08 23:24:00,
2016-02-08 17:29:00,52.6,23.5,29.95,WNW,293,10.4,10.4,32,0.00,BKN,,0.00,WeatherDisplay:10.37,2016-02-08 23:29:00,
2016-02-08 17:49:00,51.7,23.5,29.95,WNW,294,10.4,10.4,33,0.00,BKN,,0.00,WeatherDisplay:10.37,2016-02-08 23:49:00,
2016-02-08 17:54:00,51.4,23.2,29.95,West,277,6.9,6.9,33,0.00,BKN,,0.00,WeatherDisplay:10.37,2016-02-08 23:54:00,
2016-02-08 17:59:00,51.3,23.1,29.95,West,268,9.2,9.2,33,0.00,BKN,,0.00,WeatherDisplay:10.37,2016-02-08 23:59:00,
2016-02-08 18:04:00,51.3,23.1,29.95,NW,306,9.2,9.2,33,0.00,CLR,,0.00,WeatherDisplay:10.37,2016-02-09 00:04:00,
2016-02-08 18:09:00,51.1,23.0,29.95,West,275,6.9,6.9,33,0.00,CLR,,0.00,WeatherDisplay:10.37,2016-02-09 00:09:00,
2016-02-08 18:14:00,50.9,22.1,29.95,West,274,11.5,11.5,32,0.00,CLR,,0.00,WeatherDisplay:10.37,2016-02-09 00:14:00,
2016-02-08 18:19:00,50.8,22.7,29.95,West,271,11.5,11.5,33,0.00,CLR,,0.00,WeatherDisplay:10.37,2016-02-09 00:19:00,
2016-02-08 18:24:00,50.6,23.2,29.95,WNW,291,11.5,11.5,34,0.00,CLR,,0.00,WeatherDisplay:10.37,2016-02-09 00:24:00,
2016-02-08 18:29:00,50.6,23.2,29.95,WNW,286,11.5,11.5,34,0.00,CLR,,0.00,WeatherDisplay:10.37,2016-02-09 00:29:00,
2016-02-08 18:34:00,50.3,23.0,29.95,NW,310,9.2,9.2,34,0.00,CLR,,0.00,WeatherDisplay:10.37,2016-02-09 00:34:00,
2016-02-08 18:39:00,50.0,23.4,29.95,WNW,284,6.9,6.9,35,0.00,CLR,,0.00,WeatherDisplay:10.37,2016-02-09 00:39:00,
2016-02-08 18:44:00,49.8,23.2,29.95,WNW,290,9.0,9.0,35,0.00,CLR,,0.00,WeatherDisplay:10.37,2016-02-09 00:44:00,
2016-02-08 18:49:00,49.6,23.7,29.95,West,273,9.2,9.2,36,0.00,CLR,,0.00,WeatherDisplay:10.37,2016-02-09 00:49:00,
2016-02-08 18:54:00,49.3,24.1,29.95,West,271,4.6,4.7,37,0.00,CLR,,0.00,WeatherDisplay:10.37,2016-02-09 00:54:00,
2016-02-08 18:59:00,49.0,23.8,29.95,West,275,4.6,4.6,37,0.00,CLR,,0.00,WeatherDisplay:10.37,2016-02-09 00:59:00,
2016-02-08 19:04:00,48.8,23.6,29.95,West,270,9.2,9.2,37,0.00,CLR,,0.00,WeatherDisplay:10.37,2016-02-09 01:04:00,
2016-02-08 19:20:00,48.2,23.7,29.95,WNW,284,5.8,5.8,38,0.00,CLR,,0.00,WeatherDisplay:10.37,2016-02-09 01:20:00,
2016-02-08 19:25:00,47.7,23.9,29.95,West,269,5.8,5.8,39,0.00,CLR,,0.00,WeatherDisplay:10.37,2016-02-09 01:25:00,
2016-02-08 19:30:00,47.5,24.3,29.95,West,277,6.9,6.9,40,0.00,CLR,,0.00,WeatherDisplay:10.37,2016-02-09 01:30:00,